createdAt,value
2023-12-05T00:02:15.138Z,-6.64
2023-12-05T00:04:44.029Z,-6.53
2023-12-05T00:07:20.715Z,-6.53
2023-12-05T00:09:48.188Z,-6.31
2023-12-05T00:12:18.172Z,-6.51
2023-12-05T00:14:45.447Z,-6.50
2023-12-05T00:17:17.580Z,-6.47
2023-12-05T00:19:44.818Z,-6.58
2023-12-05T00:22:17.457Z,-6.45
2023-12-05T00:24:45.073Z,-6.36
2023-12-05T00:27:17.314Z,-6.24
2023-12-05T00:29:48.947Z,-6.42
2023-12-05T00:32:18.674Z,-6.19
2023-12-05T00:34:47.109Z,-6.11
2023-12-05T00:37:17.310Z,-6.33
2023-12-05T00:39:45.107Z,-6.40
2023-12-05T00:42:14.757Z,-6.23
2023-12-05T00:44:43.014Z,-6.23
2023-12-05T00:47:10.409Z,-6.21
2023-12-05T00:49:38.398Z,-6.14
2023-12-05T00:52:08.691Z,-6.01
2023-12-05T00:54:35.957Z,-5.98
2023-12-05T00:57:03.396Z,-6.08
2023-12-05T00:59:33.558Z,-6.09
2023-12-05T01:02:03.998Z,-5.88
2023-12-05T01:04:31.752Z,-5.90
2023-12-05T01:07:00.301Z,-6.46
2023-12-05T01:09:27.497Z,-6.07
2023-12-05T01:11:54.652Z,-6.01
2023-12-05T01:14:21.995Z,-6.04
2023-12-05T01:16:49.116Z,-6.01
2023-12-05T01:19:16.356Z,-5.93
2023-12-05T01:21:43.826Z,-5.82
2023-12-05T01:24:10.984Z,-6.07
2023-12-05T01:26:38.145Z,-6.07
2023-12-05T01:29:06.369Z,-5.91
2023-12-05T01:31:33.906Z,-5.76
2023-12-05T01:34:01.362Z,-5.77
2023-12-05T01:36:32.265Z,-5.82
2023-12-05T01:38:59.384Z,-5.90
2023-12-05T01:41:27.213Z,-5.83
2023-12-05T01:43:54.341Z,-5.65
2023-12-05T01:46:21.829Z,-5.71
2023-12-05T01:48:49.487Z,-5.62
2023-12-05T01:51:17.752Z,-5.71
2023-12-05T01:53:45.302Z,-5.64
2023-12-05T01:56:13.959Z,-5.54
2023-12-05T01:58:41.413Z,-5.53
2023-12-05T02:01:11.285Z,-5.47
2023-12-05T02:03:40.272Z,-5.39
2023-12-05T02:06:08.506Z,-5.41
2023-12-05T02:08:37.361Z,-5.27
2023-12-05T02:11:04.765Z,-5.24
2023-12-05T02:13:32.096Z,-5.30
2023-12-05T02:16:22.917Z,-5.30
2023-12-05T02:19:04.486Z,-5.18
2023-12-05T02:21:39.335Z,-5.16
2023-12-05T02:24:23.753Z,-5.24
2023-12-05T02:27:22.477Z,-5.16
2023-12-05T02:29:53.384Z,-5.10
2023-12-05T02:32:20.582Z,-5.05
2023-12-05T02:34:48.288Z,-5.47
2023-12-05T02:38:06.533Z,-5.27
2023-12-05T02:40:38.936Z,-5.27
2023-12-05T02:43:13.096Z,-5.18
2023-12-05T02:45:41.766Z,-5.12
2023-12-05T02:48:11.828Z,-5.22
2023-12-05T02:50:39.378Z,-5.14
2023-12-05T02:53:06.935Z,-5.02
2023-12-05T02:55:37.183Z,-5.01
2023-12-05T02:58:06.718Z,-5.05
2023-12-05T03:00:34.046Z,-4.93
2023-12-05T03:03:01.160Z,-4.74
2023-12-05T03:05:28.811Z,-4.87
2023-12-05T03:07:56.196Z,-4.95
2023-12-05T03:10:23.641Z,-4.83
2023-12-05T03:12:50.878Z,-4.77
2023-12-05T03:15:18.115Z,-4.73
2023-12-05T03:17:45.527Z,-4.71
2023-12-05T03:20:12.952Z,-4.88
2023-12-05T03:22:40.469Z,-4.93
2023-12-05T03:25:07.939Z,-4.94
2023-12-05T03:27:36.255Z,-4.79
2023-12-05T03:30:04.427Z,-4.68
2023-12-05T03:32:34.455Z,-4.67
2023-12-05T03:35:01.981Z,-4.58
2023-12-05T03:37:29.321Z,-4.77
2023-12-05T03:39:56.551Z,-4.78
2023-12-05T03:42:24.782Z,-4.60
2023-12-05T03:44:51.905Z,-4.71
2023-12-05T03:47:19.132Z,-4.77
2023-12-05T03:49:46.556Z,-4.80
2023-12-05T03:52:17.246Z,-4.62
2023-12-05T03:54:44.723Z,-4.56
2023-12-05T03:57:14.655Z,-4.59
2023-12-05T03:59:43.378Z,-4.52
2023-12-05T04:02:12.877Z,-4.32
2023-12-05T04:04:43.161Z,-4.45
2023-12-05T04:07:10.443Z,-4.49
2023-12-05T04:09:37.815Z,-4.37
2023-12-05T04:12:05.315Z,-4.39
2023-12-05T04:14:32.792Z,-4.24
2023-12-05T04:17:00.144Z,-4.46
2023-12-05T04:19:28.436Z,-4.53
2023-12-05T04:21:55.724Z,-4.46
2023-12-05T04:24:23.178Z,-4.54
2023-12-05T04:26:50.318Z,-4.47
2023-12-05T04:29:17.511Z,-4.53
2023-12-05T04:31:44.860Z,-4.48
2023-12-05T04:34:12.340Z,-4.47
2023-12-05T04:36:40.141Z,-4.38
2023-12-05T04:39:08.636Z,-4.35
2023-12-05T04:41:36.967Z,-4.40
2023-12-05T04:44:05.282Z,-4.42
2023-12-05T04:46:32.822Z,-4.43
2023-12-05T04:49:00.022Z,-4.33
2023-12-05T04:51:28.014Z,-4.28
2023-12-05T04:53:55.489Z,-4.38
2023-12-05T04:56:23.335Z,-4.26
2023-12-05T04:58:50.442Z,-4.26
2023-12-05T05:01:20.922Z,-4.18
2023-12-05T05:03:48.439Z,-3.96
2023-12-05T05:06:16.051Z,-4.07
2023-12-05T05:08:43.856Z,-4.14
2023-12-05T05:11:11.135Z,-4.23
2023-12-05T05:13:45.896Z,-4.06
2023-12-05T05:16:17.360Z,-4.02
2023-12-05T05:18:44.605Z,-4.04
2023-12-05T05:21:14.287Z,-3.95
2023-12-05T05:23:41.469Z,-4.06
2023-12-05T05:26:09.424Z,-4.05
2023-12-05T05:28:39.344Z,-3.96
2023-12-05T05:31:07.052Z,-4.00
2023-12-05T05:33:34.610Z,-3.95
2023-12-05T05:36:01.979Z,-3.97
2023-12-05T05:38:32.264Z,-3.94
2023-12-05T05:41:07.939Z,-3.76
2023-12-05T05:43:35.940Z,-3.63
2023-12-05T05:46:03.460Z,-3.78
2023-12-05T05:48:33.603Z,-3.67
2023-12-05T05:51:01.772Z,-3.91
2023-12-05T05:53:31.381Z,-3.94
2023-12-05T05:56:01.883Z,-4.05
2023-12-05T05:58:31.783Z,-3.91
2023-12-05T06:00:59.144Z,-3.88
2023-12-05T06:03:29.441Z,-3.99
2023-12-05T06:06:00.111Z,-3.98
2023-12-05T06:08:27.377Z,-3.95
2023-12-05T06:10:54.647Z,-3.90
2023-12-05T06:13:22.020Z,-3.67
2023-12-05T06:15:49.194Z,-3.72
2023-12-05T06:18:18.946Z,-3.79
2023-12-05T06:20:47.476Z,-3.56
2023-12-05T06:23:15.348Z,-3.52
2023-12-05T06:25:42.656Z,-3.54
2023-12-05T06:28:12.111Z,-3.61
2023-12-05T06:30:39.472Z,-3.56
2023-12-05T06:33:06.742Z,-3.58
2023-12-05T06:35:36.721Z,-3.64
2023-12-05T06:38:03.844Z,-3.63
2023-12-05T06:40:31.286Z,-3.61
2023-12-05T06:42:58.835Z,-3.61
2023-12-05T06:45:26.129Z,-3.43
2023-12-05T06:47:53.325Z,-3.41
2023-12-05T06:50:20.497Z,-3.42
2023-12-05T06:52:47.606Z,-3.41
2023-12-05T06:55:15.223Z,-3.42
2023-12-05T06:57:42.434Z,-3.46
2023-12-05T07:00:10.193Z,-3.35
2023-12-05T07:02:37.547Z,-3.33
2023-12-05T07:05:06.004Z,-3.14
2023-12-05T07:07:33.819Z,-3.14
2023-12-05T07:10:01.248Z,-3.11
2023-12-05T07:12:31.524Z,-3.17
2023-12-05T07:14:59.061Z,-3.07
2023-12-05T07:17:26.331Z,-2.97
2023-12-05T07:19:53.589Z,-2.98
2023-12-05T07:22:20.829Z,-3.15
2023-12-05T07:24:48.049Z,-3.27
2023-12-05T07:27:17.568Z,-3.23
2023-12-05T07:29:44.902Z,-3.15
2023-12-05T07:32:17.267Z,-2.89
2023-12-05T07:34:44.510Z,-3.02
2023-12-05T07:37:17.623Z,-3.20
2023-12-05T07:39:44.933Z,-3.18
2023-12-05T07:42:17.366Z,-2.92
2023-12-05T07:44:44.490Z,-3.21
2023-12-05T07:47:17.572Z,-3.22
2023-12-05T07:49:48.616Z,-3.05
2023-12-05T07:52:17.573Z,-2.98
2023-12-05T07:54:44.742Z,-2.92
2023-12-05T07:57:23.228Z,-2.96
2023-12-05T07:59:53.375Z,-2.99
2023-12-05T08:02:22.434Z,-2.92
2023-12-05T08:04:49.772Z,-2.68
2023-12-05T08:07:18.349Z,-2.67
2023-12-05T08:09:45.787Z,-2.57
2023-12-05T08:12:17.672Z,-2.70
2023-12-05T08:14:44.876Z,-2.66
2023-12-05T08:17:17.281Z,-2.63
2023-12-05T08:19:44.432Z,-2.70
2023-12-05T08:22:14.987Z,-2.65
2023-12-05T08:24:43.202Z,-2.55
2023-12-05T08:27:10.489Z,-2.52
2023-12-05T08:29:43.801Z,-2.61
2023-12-05T08:32:14.694Z,-2.37
2023-12-05T08:34:44.805Z,-2.42
2023-12-05T08:37:14.856Z,-2.51
2023-12-05T08:39:43.121Z,-2.48
2023-12-05T08:42:10.535Z,-2.50
2023-12-05T08:44:43.776Z,-2.37
2023-12-05T08:47:13.009Z,-2.40
2023-12-05T08:49:43.923Z,-2.43
2023-12-05T08:52:11.293Z,-2.37
2023-12-05T08:54:43.486Z,-2.21
2023-12-05T08:57:14.735Z,-2.26
2023-12-05T08:59:45.584Z,-1.94
2023-12-05T09:02:17.723Z,-1.96
2023-12-05T09:04:45.377Z,-2.08
2023-12-05T09:07:17.684Z,-1.94
2023-12-05T09:09:45.003Z,-2.05
2023-12-05T09:12:17.345Z,-1.88
2023-12-05T09:14:44.857Z,-1.97
2023-12-05T09:17:19.731Z,-2.04
2023-12-05T09:19:47.086Z,-1.98
2023-12-05T09:22:18.688Z,-1.94
2023-12-05T09:24:45.890Z,-1.94
2023-12-05T09:27:17.350Z,-1.95
2023-12-05T09:29:50.212Z,-1.77
2023-12-05T09:32:19.654Z,-1.62
2023-12-05T09:34:47.138Z,-1.72
2023-12-05T09:37:17.412Z,-1.81
2023-12-05T09:39:44.828Z,-1.76
2023-12-05T09:42:17.758Z,-1.75
2023-12-05T09:44:48.805Z,-1.50
2023-12-05T09:47:21.662Z,-1.45
2023-12-05T09:49:49.968Z,-1.39
2023-12-05T09:52:17.706Z,-1.41
2023-12-05T09:54:45.481Z,-1.41
2023-12-05T09:57:17.613Z,-1.42
2023-12-05T09:59:44.872Z,-1.28
2023-12-05T10:02:17.762Z,-1.30
2023-12-05T10:04:46.697Z,-1.34
2023-12-05T10:07:17.190Z,-1.15
2023-12-05T10:09:44.990Z,-1.06
2023-12-05T10:12:18.157Z,-1.10
2023-12-05T10:14:47.007Z,-1.16
2023-12-05T10:17:17.242Z,-1.14
2023-12-05T10:19:45.054Z,-1.04
2023-12-05T10:22:17.600Z,-0.85
2023-12-05T10:24:46.870Z,-0.84
2023-12-05T10:27:16.935Z,-0.83
2023-12-05T10:29:44.212Z,-0.90
2023-12-05T10:32:17.572Z,-0.81
2023-12-05T10:34:52.843Z,-0.66
2023-12-05T10:37:24.739Z,-0.79
2023-12-05T10:39:54.666Z,-0.86
2023-12-05T10:42:29.191Z,-0.85
2023-12-05T10:44:57.097Z,-0.57
2023-12-05T10:47:28.934Z,-0.59
2023-12-05T10:49:56.898Z,-0.42
2023-12-05T10:52:25.769Z,-0.49
2023-12-05T10:54:59.498Z,-0.52
2023-12-05T10:57:35.753Z,-0.53
2023-12-05T11:00:05.117Z,-0.51
2023-12-05T11:02:32.576Z,-0.54
2023-12-05T11:05:05.836Z,-0.33
2023-12-05T11:07:33.390Z,-0.24
2023-12-05T11:10:01.176Z,-0.31
2023-12-05T11:12:29.660Z,-0.22
2023-12-05T11:14:58.982Z,-0.22
2023-12-05T11:18:21.661Z,-0.18
2023-12-05T11:21:01.894Z,-0.15
2023-12-05T11:23:47.247Z,-0.12
2023-12-05T11:26:45.658Z,-0.27
2023-12-05T11:29:49.046Z,-0.30
2023-12-05T11:32:32.124Z,-0.41
2023-12-05T11:35:05.681Z,-0.29
2023-12-05T11:37:54.961Z,-0.35
2023-12-05T11:40:22.718Z,-0.39
2023-12-05T11:43:09.980Z,-0.25
2023-12-05T11:45:39.403Z,-0.32
2023-12-05T11:48:09.968Z,-0.35
2023-12-05T11:50:46.321Z,-0.33
2023-12-05T11:53:15.849Z,-0.42
2023-12-05T11:55:45.027Z,-0.33
2023-12-05T11:58:32.709Z,-0.25
2023-12-05T12:01:10.608Z,-0.28
2023-12-05T12:03:56.352Z,-0.27
2023-12-05T12:06:26.285Z,-0.23
2023-12-05T12:08:55.509Z,-0.25
2023-12-05T12:11:23.595Z,-0.29
2023-12-05T12:13:51.753Z,-0.31
2023-12-05T12:16:20.929Z,-0.31
2023-12-05T12:18:53.719Z,-0.29
2023-12-05T12:21:32.721Z,-0.24
2023-12-05T12:24:01.131Z,-0.25
2023-12-05T12:26:33.649Z,-0.23
2023-12-05T12:29:11.020Z,-0.23
2023-12-05T12:31:39.099Z,-0.18
2023-12-05T12:34:09.888Z,-0.05
2023-12-05T12:36:38.898Z,-0.05
2023-12-05T12:39:06.193Z,-0.07
2023-12-05T12:41:33.356Z,-0.06
2023-12-05T12:44:00.759Z,0.09
2023-12-05T12:46:27.857Z,0.15
2023-12-05T12:48:58.127Z,0.05
2023-12-05T12:51:25.325Z,-0.04
2023-12-05T12:53:52.693Z,0.09
2023-12-05T12:56:19.875Z,0.12
2023-12-05T12:58:48.950Z,0.28
2023-12-05T13:01:16.294Z,0.48
2023-12-05T13:03:45.440Z,0.36
2023-12-05T13:06:13.821Z,0.27
2023-12-05T13:08:41.235Z,0.30
2023-12-05T13:11:09.212Z,0.29
2023-12-05T13:13:36.707Z,0.42
2023-12-05T13:16:06.563Z,0.26
2023-12-05T13:18:45.603Z,0.21
2023-12-05T13:21:14.083Z,0.17
2023-12-05T13:23:45.013Z,0.12
2023-12-05T13:26:13.228Z,0.12
2023-12-05T13:28:41.015Z,0.07
2023-12-05T13:31:09.398Z,0.16
2023-12-05T13:33:36.985Z,0.12
2023-12-05T13:36:04.911Z,0.11
2023-12-05T13:38:32.093Z,0.09
2023-12-05T13:41:02.871Z,0.01
2023-12-05T13:43:33.191Z,-0.10
2023-12-05T13:46:02.806Z,-0.07
2023-12-05T13:48:30.394Z,-0.11
2023-12-05T13:51:04.100Z,-0.04
2023-12-05T13:53:31.297Z,-0.19
2023-12-05T13:56:03.914Z,-0.03
2023-12-05T13:58:31.206Z,-0.07
2023-12-05T14:01:03.265Z,-0.16
2023-12-05T14:03:31.001Z,-0.18
2023-12-05T14:06:03.828Z,-0.12
2023-12-05T14:08:31.049Z,-0.24
2023-12-05T14:11:02.754Z,-0.22
2023-12-05T14:13:32.083Z,-0.28
2023-12-05T14:16:04.350Z,-0.26
2023-12-05T14:18:32.967Z,-0.16
2023-12-05T14:21:02.848Z,0.10
2023-12-05T14:23:30.136Z,0.02
2023-12-05T14:25:59.881Z,-0.17
2023-12-05T14:28:29.285Z,-0.22
2023-12-05T14:31:02.560Z,-0.28
2023-12-05T14:33:30.008Z,-0.31
2023-12-05T14:36:00.313Z,-0.29
2023-12-05T14:38:31.114Z,-0.29
2023-12-05T14:41:02.991Z,-0.39
2023-12-05T14:43:30.234Z,-0.42
2023-12-05T14:46:02.688Z,-0.43
2023-12-05T14:48:30.283Z,-0.55
2023-12-05T14:51:00.474Z,-0.49
2023-12-05T14:53:31.453Z,-0.55
2023-12-05T14:56:02.790Z,-0.42
2023-12-05T14:58:30.016Z,-0.39
2023-12-05T15:01:03.555Z,-0.35
2023-12-05T15:03:31.934Z,-0.48
2023-12-05T15:06:02.396Z,-0.42
2023-12-05T15:08:32.018Z,-0.46
2023-12-05T15:11:02.555Z,-0.78
2023-12-05T15:13:29.937Z,-0.79
2023-12-05T15:16:03.223Z,-0.86
2023-12-05T15:18:31.102Z,-0.80
2023-12-05T15:21:02.742Z,-0.64
2023-12-05T15:23:30.154Z,-1.01
2023-12-05T15:26:02.538Z,-0.85
2023-12-05T15:28:30.293Z,-1.03
2023-12-05T15:31:02.954Z,-1.00
2023-12-05T15:33:30.479Z,-1.14
2023-12-05T15:36:02.444Z,-1.25
2023-12-05T15:38:30.567Z,-1.23
2023-12-05T15:41:02.924Z,-0.92
2023-12-05T15:43:30.113Z,-0.84
2023-12-05T15:46:00.036Z,-0.62
2023-12-05T15:48:43.634Z,-0.59
2023-12-05T15:51:13.975Z,-0.70
2023-12-05T15:53:42.797Z,-1.18
2023-12-05T15:56:12.538Z,-1.25
2023-12-05T15:58:40.508Z,-1.20
2023-12-05T16:01:08.050Z,-1.15
2023-12-05T16:03:35.873Z,-1.28
2023-12-05T16:06:03.097Z,-1.14
2023-12-05T16:08:30.288Z,-0.67
2023-12-05T16:11:02.270Z,-0.96
2023-12-05T16:13:29.728Z,-1.03
2023-12-05T16:16:03.728Z,-1.06
2023-12-05T16:18:31.246Z,-1.01
2023-12-05T16:21:02.768Z,-0.83
2023-12-05T16:23:31.190Z,-0.73
2023-12-05T16:26:02.339Z,-0.78
2023-12-05T16:28:29.431Z,-0.92
2023-12-05T16:30:58.347Z,-0.92
2023-12-05T16:33:32.305Z,-0.96
2023-12-05T16:36:03.267Z,-0.89
2023-12-05T16:38:30.948Z,-0.90
2023-12-05T16:41:04.051Z,-0.96
2023-12-05T16:43:31.244Z,-0.63
2023-12-05T16:46:02.838Z,-0.60
2023-12-05T16:48:30.074Z,-0.67
2023-12-05T16:51:00.356Z,-0.82
2023-12-05T16:53:28.373Z,-0.83
2023-12-05T16:55:56.028Z,-0.92
2023-12-05T16:58:25.982Z,-0.77
2023-12-05T17:00:53.334Z,-0.78
2023-12-05T17:03:23.217Z,-0.70
2023-12-05T17:05:50.830Z,-0.66
2023-12-05T17:08:18.336Z,-0.63
2023-12-05T17:10:45.989Z,-0.78
2023-12-05T17:13:13.416Z,-0.79
2023-12-05T17:15:42.659Z,-0.79
2023-12-05T17:18:10.581Z,-0.77
2023-12-05T17:20:38.432Z,-0.61
2023-12-05T17:23:05.743Z,-0.59
2023-12-05T17:25:33.177Z,-0.72
2023-12-05T17:28:04.060Z,-0.69
2023-12-05T17:30:34.677Z,-0.52
2023-12-05T17:33:02.663Z,-0.48
2023-12-05T17:35:30.320Z,-0.60
2023-12-05T17:37:57.653Z,-0.38
2023-12-05T17:40:24.789Z,-0.55
2023-12-05T17:42:51.936Z,-0.52
2023-12-05T17:45:20.349Z,-0.43
2023-12-05T17:47:47.904Z,-0.41
2023-12-05T17:50:15.357Z,-0.38
2023-12-05T17:52:45.542Z,-0.45
2023-12-05T17:55:14.011Z,-0.41
2023-12-05T17:57:41.597Z,-0.43
2023-12-05T18:00:09.757Z,-0.56
2023-12-05T18:02:44.417Z,-0.48
2023-12-05T18:05:11.676Z,-0.52
2023-12-05T18:07:54.181Z,-0.39
2023-12-05T18:10:25.742Z,-0.44
2023-12-05T18:12:53.266Z,-0.53
2023-12-05T18:15:20.801Z,-0.54
2023-12-05T18:17:50.680Z,-0.49
2023-12-05T18:20:18.095Z,-0.54
2023-12-05T18:22:48.290Z,-0.21
2023-12-05T18:25:16.007Z,-0.43
2023-12-05T18:27:44.148Z,-0.51
2023-12-05T18:30:11.731Z,-0.49
2023-12-05T18:32:39.683Z,-0.41
2023-12-05T18:35:07.287Z,-0.48
2023-12-05T18:37:34.797Z,-0.44
2023-12-05T18:40:03.785Z,-0.54
2023-12-05T18:42:35.097Z,-0.57
2023-12-05T18:45:02.338Z,-0.45
2023-12-05T18:47:29.524Z,-0.37
2023-12-05T18:49:58.282Z,-0.39
2023-12-05T18:52:25.989Z,-0.46
2023-12-05T18:54:53.547Z,-0.37
2023-12-05T18:57:21.530Z,-0.07
2023-12-05T18:59:48.861Z,-0.05
2023-12-05T19:02:16.279Z,-0.19
2023-12-05T19:04:44.079Z,0.03
2023-12-05T19:07:14.095Z,0.13
2023-12-05T19:09:42.412Z,0.10
2023-12-05T19:12:09.622Z,-0.03
2023-12-05T19:14:37.386Z,-0.10
2023-12-05T19:17:06.905Z,0.08
2023-12-05T19:19:34.365Z,0.05
2023-12-05T19:22:03.877Z,0.04
2023-12-05T19:24:32.029Z,0.04
2023-12-05T19:27:00.833Z,0.11
2023-12-05T19:29:27.923Z,0.12
2023-12-05T19:31:55.369Z,0.24
2023-12-05T19:34:32.272Z,0.26
2023-12-05T19:37:07.506Z,0.26
2023-12-05T19:40:09.055Z,0.32
2023-12-05T19:42:39.137Z,0.12
2023-12-05T19:45:14.094Z,0.09
2023-12-05T19:47:59.280Z,0.06
2023-12-05T19:50:26.920Z,0.18
2023-12-05T19:52:54.294Z,0.15
2023-12-05T19:55:22.844Z,0.00
2023-12-05T19:57:50.141Z,0.04
2023-12-05T20:00:17.569Z,0.20
2023-12-05T20:02:44.658Z,0.10
2023-12-05T20:05:11.894Z,-0.07
2023-12-05T20:07:39.483Z,-0.08
2023-12-05T20:10:07.510Z,0.04
2023-12-05T20:12:34.966Z,-0.08
2023-12-05T20:15:02.054Z,0.05
2023-12-05T20:17:29.729Z,0.02
2023-12-05T20:19:57.364Z,-0.06
2023-12-05T20:22:29.643Z,0.17
2023-12-05T20:24:58.370Z,0.26
2023-12-05T20:27:25.939Z,0.20
2023-12-05T20:29:56.979Z,0.26
2023-12-05T20:32:24.923Z,-0.04
2023-12-05T20:34:52.359Z,0.26
2023-12-05T20:37:19.670Z,0.14
2023-12-05T20:39:46.950Z,0.00
2023-12-05T20:42:14.077Z,-0.03
2023-12-05T20:44:41.304Z,-0.19
2023-12-05T20:47:08.812Z,-0.25
2023-12-05T20:49:36.345Z,-0.21
2023-12-05T20:52:04.621Z,-0.25
2023-12-05T20:54:34.607Z,-0.25
2023-12-05T20:57:04.892Z,-0.21
2023-12-05T20:59:31.992Z,-0.28
2023-12-05T21:02:00.951Z,-0.38
2023-12-05T21:04:28.111Z,-0.47
2023-12-05T21:06:55.504Z,-0.57
2023-12-05T21:09:22.815Z,-0.59
2023-12-05T21:11:50.742Z,-0.52
2023-12-05T21:14:20.419Z,-0.57
2023-12-05T21:16:48.303Z,-0.87
2023-12-05T21:19:15.511Z,-1.01
2023-12-05T21:21:45.618Z,-0.83
2023-12-05T21:24:13.551Z,-0.80
2023-12-05T21:26:44.861Z,-1.10
2023-12-05T21:29:12.208Z,-0.93
2023-12-05T21:31:42.159Z,-1.09
2023-12-05T21:34:12.006Z,-1.06
2023-12-05T21:36:39.363Z,-0.95
2023-12-05T21:39:06.540Z,-0.95
2023-12-05T21:41:36.447Z,-0.91
2023-12-05T21:44:04.283Z,-0.73
2023-12-05T21:46:32.698Z,-0.94
2023-12-05T21:49:00.958Z,-0.81
2023-12-05T21:51:29.751Z,-1.27
2023-12-05T21:53:59.524Z,-1.15
2023-12-05T21:56:28.388Z,-1.21
2023-12-05T21:58:57.112Z,-1.11
2023-12-05T22:01:24.820Z,-1.07
2023-12-05T22:03:52.170Z,-0.79
2023-12-05T22:06:19.321Z,-0.71
2023-12-05T22:08:46.615Z,-0.74
2023-12-05T22:11:13.865Z,-0.72
2023-12-05T22:13:44.600Z,-0.67
2023-12-05T22:16:13.042Z,-0.61
2023-12-05T22:18:40.815Z,-0.78
2023-12-05T22:21:08.262Z,-0.84
2023-12-05T22:23:41.484Z,-0.57
2023-12-05T22:26:09.868Z,-0.75
2023-12-05T22:28:37.338Z,-0.58
2023-12-05T22:31:07.908Z,-0.57
2023-12-05T22:33:35.493Z,-0.66
2023-12-05T22:36:03.500Z,-0.76
2023-12-05T22:38:30.627Z,-0.69
2023-12-05T22:41:02.854Z,-0.68
2023-12-05T22:43:32.037Z,-0.59
2023-12-05T22:46:10.227Z,-0.58
2023-12-05T22:48:39.097Z,-0.40
2023-12-05T22:51:10.973Z,-0.56
2023-12-05T22:56:11.304Z,-0.77
2023-12-05T22:58:38.515Z,-0.69
2023-12-05T23:01:05.979Z,-0.50
2023-12-05T23:03:34.476Z,-0.40
2023-12-05T23:06:02.654Z,-0.67
2023-12-05T23:08:30.122Z,-0.61
2023-12-05T23:11:03.502Z,-0.70
2023-12-05T23:13:31.011Z,-0.65
2023-12-05T23:16:02.945Z,-0.52
2023-12-05T23:18:30.209Z,-0.46
2023-12-05T23:21:02.691Z,-0.52
2023-12-05T23:23:30.352Z,-0.46
2023-12-05T23:26:02.814Z,-0.45
2023-12-05T23:28:30.489Z,-0.40
2023-12-05T23:31:04.882Z,-0.45
2023-12-05T23:33:32.718Z,-0.48
2023-12-05T23:36:03.595Z,-0.64
2023-12-05T23:38:30.674Z,-0.67
2023-12-05T23:41:03.708Z,-0.68
2023-12-05T23:43:32.936Z,-0.68
2023-12-05T23:46:03.090Z,-0.61
2023-12-05T23:48:30.808Z,-0.50
2023-12-05T23:51:02.956Z,-0.51
2023-12-05T23:53:30.125Z,-0.43
2023-12-05T23:56:02.636Z,-0.49
2023-12-05T23:58:32.485Z,-0.56
